Time;durP1;ratioP1;P1;durP2;ratioP2;P2;SDS_P1;SDS_P2;PMS_P1;PMS_P2;Temp;Humidity;BMP_temperature;BMP_pressure;BME280_temperature;BME280_humidity;BME280_pressure;Samples;Min_cycle;Max_cycle;Signal;HPM_P1;HPM_P2
2022/12/28 00:01:38;;;;;;;1.47;1.37;;;;;;;9.14;66.25;95457.50;2618990;54;20250;-83
2022/12/28 00:04:07;;;;;;;0.90;0.90;;;;;;;9.44;65.58;95468.84;2618582;47;20228;-83
2022/12/28 00:06:36;;;;;;;2.10;2.00;;;;;;;9.63;64.70;95459.91;2618671;39;20573;-84
2022/12/28 00:09:08;;;;;;;1.20;1.20;;;;;;;9.31;64.26;95432.84;2618685;54;20195;-84
2022/12/28 00:11:36;;;;;;;2.33;1.57;;;;;;;9.46;64.50;95458.38;2618476;54;20156;-84
2022/12/28 00:14:05;;;;;;;1.37;1.33;;;;;;;9.22;63.77;95381.59;2618364;54;20160;-82
2022/12/28 00:16:37;;;;;;;1.57;1.57;;;;;;;9.94;62.63;95445.84;2618339;54;20172;-83
2022/12/28 00:19:07;;;;;;;1.30;1.10;;;;;;;10.30;62.29;95477.25;2618968;39;20616;-83
2022/12/28 00:21:36;;;;;;;1.30;1.30;;;;;;;10.10;62.26;95474.19;2618032;46;20192;-82
2022/12/28 00:24:09;;;;;;;2.77;1.90;;;;;;;9.89;62.78;95475.31;2619008;47;20271;-83
2022/12/28 00:26:38;;;;;;;1.73;1.63;;;;;;;9.53;63.56;95462.25;2620340;47;20172;-82
2022/12/28 00:29:07;;;;;;;1.03;1.03;;;;;;;9.69;63.17;95473.63;2624687;46;20157;-83
2022/12/28 00:31:36;;;;;;;1.83;1.73;;;;;;;9.80;63.25;95486.88;2618434;54;20964;-83
2022/12/28 00:34:05;;;;;;;1.97;1.30;;;;;;;9.91;62.45;95486.75;2618376;47;20157;-83
2022/12/28 00:36:34;;;;;;;2.13;1.90;;;;;;;9.88;62.63;95493.66;2618335;47;20149;-82
2022/12/28 00:39:03;;;;;;;2.20;1.97;;;;;;;9.67;62.83;95482.75;2617988;54;20165;-83
2022/12/28 00:41:34;;;;;;;1.87;1.73;;;;;;;9.25;63.34;95444.63;2617988;47;20667;-83
2022/12/28 00:44:03;;;;;;;1.70;1.60;;;;;;;9.30;64.51;95488.66;2618319;46;20164;-83
2022/12/28 00:46:32;;;;;;;1.30;1.20;;;;;;;9.11;65.43;95509.63;2618452;54;20165;-84
2022/12/28 00:49:00;;;;;;;2.03;1.93;;;;;;;8.82;66.10;95503.88;2619086;54;20168;-83
2022/12/28 00:51:29;;;;;;;0.93;0.93;;;;;;;8.60;67.17;95494.97;2618809;47;20347;-83
2022/12/28 00:53:58;;;;;;;0.93;0.93;;;;;;;8.61;67.40;95504.19;2618589;47;20193;-83
2022/12/28 00:56:26;;;;;;;0.87;0.87;;;;;;;8.35;67.70;95473.16;2617992;47;20168;-83
2022/12/28 00:59:01;;;;;;;1.37;1.37;;;;;;;8.69;67.47;95504.59;2618320;47;20140;-83
2022/12/28 01:01:30;;;;;;;2.10;2.00;;;;;;;8.67;68.12;95529.91;2618584;39;20568;-83
2022/12/28 01:04:00;;;;;;;1.00;1.00;;;;;;;8.49;68.42;95493.66;2618640;47;20199;-83
2022/12/28 01:06:30;;;;;;;1.37;1.37;;;;;;;8.62;69.18;95514.09;2618623;54;20272;-83
2022/12/28 01:09:00;;;;;;;2.03;1.97;;;;;;;8.85;68.71;95517.47;2618027;52;20153;-83
2022/12/28 01:11:30;;;;;;;2.00;1.90;;;;;;;8.78;68.44;95506.47;2618160;47;20153;-83
2022/12/28 01:14:03;;;;;;;1.50;1.43;;;;;;;9.10;67.43;95515.91;2616850;47;20149;-83
2022/12/28 01:16:34;;;;;;;2.43;2.00;;;;;;;9.05;66.69;95489.53;2618633;46;20289;-83
2022/12/28 01:19:05;;;;;;;1.37;1.37;;;;;;;9.05;66.66;95503.66;2618040;47;20175;-82
2022/12/28 01:21:36;;;;;;;1.77;1.73;;;;;;;9.04;67.03;95504.28;2617991;47;20156;-83
2022/12/28 01:24:07;;;;;;;2.67;2.53;;;;;;;8.98;66.82;95512.47;2618296;54;20149;-83
2022/12/28 01:26:36;;;;;;;1.67;1.27;;;;;;;7.79;67.84;95403.81;2617561;54;20161;-83
2022/12/28 01:29:07;;;;;;;1.30;1.20;;;;;;;8.77;68.26;95510.66;2617626;54;20283;-82
2022/12/28 01:31:36;;;;;;;2.50;2.27;;;;;;;8.54;67.83;95460.75;2617954;47;20145;-83
2022/12/28 01:34:05;;;;;;;1.83;1.77;;;;;;;8.87;67.29;95491.44;2617451;47;20157;-83
2022/12/28 01:36:34;;;;;;;2.03;1.93;;;;;;;9.08;66.47;95504.50;2617886;47;20679;-83
2022/12/28 01:39:05;;;;;;;1.13;1.13;;;;;;;9.17;66.25;95504.28;2618776;54;20287;-82
2022/12/28 01:41:38;;;;;;;1.93;1.83;;;;;;;9.40;65.01;95486.38;2618826;47;20199;-83
2022/12/28 01:44:36;;;;;;;2.17;1.80;;;;;;;9.55;64.73;95499.84;2617800;47;20153;-83
2022/12/28 01:47:11;;;;;;;3.47;2.80;;;;;;;9.72;64.20;95501.34;2625750;47;20153;-84
2022/12/28 01:49:43;;;;;;;3.00;2.73;;;;;;;9.43;64.82;95501.34;2618298;54;20156;-82
2022/12/28 01:52:17;;;;;;;2.10;2.00;;;;;;;8.99;65.03;95465.91;2618687;47;20161;-84
2022/12/28 01:54:48;;;;;;;2.13;1.87;;;;;;;9.21;65.68;95500.94;2619238;54;20227;-82
2022/12/28 01:57:18;;;;;;;1.63;1.53;;;;;;;9.04;65.60;95492.97;2619061;47;20243;-83
2022/12/28 01:59:52;;;;;;;2.27;2.07;;;;;;;8.27;67.28;95435.28;2617858;54;20152;-83
2022/12/28 02:02:24;;;;;;;2.40;2.20;;;;;;;8.15;68.18;95484.06;2617731;54;20163;-82
2022/12/28 02:04:53;;;;;;;1.10;1.10;;;;;;;7.12;68.26;95374.00;2617629;47;20199;-83
2022/12/28 02:07:28;;;;;;;0.97;0.97;;;;;;;7.13;68.88;95381.09;2617960;54;20180;-82
2022/12/28 02:09:57;;;;;;;2.20;2.10;;;;;;;7.69;68.98;95467.38;2616878;47;20777;-83
2022/12/28 02:12:27;;;;;;;1.43;1.43;;;;;;;7.73;69.25;95462.72;2617953;54;20161;-83
2022/12/28 02:14:55;;;;;;;3.13;2.23;;;;;;;7.53;68.84;95443.91;2617797;47;20164;-83
2022/12/28 02:17:27;;;;;;;0.97;0.97;;;;;;;7.67;68.71;95478.53;2616196;47;20161;-83
2022/12/28 02:19:55;;;;;;;0.90;0.90;;;;;;;7.67;68.85;95476.44;2617779;47;20168;-83
2022/12/28 02:22:56;;;;;;;2.13;1.93;;;;;;;7.26;68.58;95385.34;2617867;46;20161;-84
2022/12/28 02:26:00;;;;;;;1.73;1.73;;;;;;;8.15;66.96;95463.59;2618901;39;20529;-84
2022/12/28 02:29:06;;;;;;;1.90;1.80;;;;;;;7.97;66.79;95456.94;2619750;54;20152;-85
2022/12/28 02:31:45;;;;;;;2.27;2.17;;;;;;;8.10;65.75;95436.50;2618625;47;20292;-84
2022/12/28 02:34:22;;;;;;;2.93;2.73;;;;;;;8.41;65.48;95455.81;2612084;54;21263;-83
2022/12/28 02:36:56;;;;;;;2.70;1.80;;;;;;;8.18;64.76;95401.00;2618596;54;20275;-84
2022/12/28 02:39:34;;;;;;;3.07;2.47;;;;;;;8.24;64.21;95433.69;2618767;47;20149;-83
2022/12/28 02:42:03;;;;;;;2.27;2.17;;;;;;;8.35;63.98;95455.47;2619066;54;20198;-83
2022/12/28 02:50:09;;;;;;;1.60;1.50;;;;;;;8.22;64.27;95451.25;2621423;47;20155;-83
2022/12/28 02:52:56;;;;;;;1.97;1.87;;;;;;;8.45;63.78;95445.47;2621872;47;20180;-83
2022/12/28 02:58:51;;;;;;;3.10;2.40;;;;;;;8.42;64.38;95418.50;2623316;47;20172;-84
2022/12/28 03:01:32;;;;;;;1.97;1.87;;;;;;;8.46;62.61;95443.41;2623670;54;20149;-83
2022/12/28 03:04:12;;;;;;;1.77;1.67;;;;;;;8.79;62.25;95440.16;2625386;54;20639;-83
2022/12/28 03:09:32;;;;;;;2.00;1.93;;;;;;;8.87;60.59;95412.34;2618871;46;20156;-84
2022/12/28 03:12:08;;;;;;;1.70;1.60;;;;;;;9.30;61.06;95409.50;2619070;54;20208;-84
2022/12/28 03:14:45;;;;;;;1.40;1.40;;;;;;;9.18;58.76;95434.34;2618930;54;20175;-84
2022/12/28 03:31:08;;;;;;;1.37;1.37;;;;;;;9.70;59.31;95452.47;2627392;46;20600;-83
2022/12/28 03:33:40;;;;;;;1.97;1.73;;;;;;;9.51;57.53;95434.59;2625598;47;20155;-85
2022/12/28 03:36:19;;;;;;;4.33;2.27;;;;;;;9.79;58.39;95471.28;2624423;47;20157;-84
2022/12/28 03:38:55;;;;;;;0.97;0.97;;;;;;;8.98;58.67;95462.34;2621787;47;20199;-83
2022/12/28 03:41:34;;;;;;;2.10;2.00;;;;;;;9.05;60.30;95447.16;2624650;47;20189;-84
2022/12/28 03:44:08;;;;;;;2.57;1.50;;;;;;;9.01;59.52;95432.84;2621715;47;20148;-84
2022/12/28 03:46:45;;;;;;;1.90;1.87;;;;;;;9.13;58.69;95450.41;2618510;47;20145;-83
2022/12/28 03:49:15;;;;;;;1.60;1.60;;;;;;;9.13;59.94;95424.97;2618357;47;20243;-84
2022/12/28 03:51:49;;;;;;;2.00;1.90;;;;;;;9.17;57.91;95432.88;2619227;39;20561;-86
2022/12/28 03:54:19;;;;;;;1.93;1.80;;;;;;;9.18;58.25;95457.69;2618693;47;20188;-83
2022/12/28 03:56:50;;;;;;;2.77;2.57;;;;;;;9.04;59.77;95428.00;2618223;54;20153;-83
2022/12/28 03:59:19;;;;;;;2.10;1.87;;;;;;;8.83;59.88;95383.88;2618090;47;20252;-84
2022/12/28 04:01:48;;;;;;;2.10;1.93;;;;;;;9.16;59.32;95389.75;2617586;47;20210;-84
2022/12/28 04:04:17;;;;;;;1.93;1.93;;;;;;;9.44;57.59;95449.06;2617474;54;20145;-83
2022/12/28 04:06:48;;;;;;;2.27;1.63;;;;;;;9.68;58.61;95449.53;2617803;47;20663;-83
2022/12/28 04:09:17;;;;;;;1.70;1.60;;;;;;;9.70;56.34;95436.22;2617190;47;20145;-83
2022/12/28 04:11:46;;;;;;;1.90;1.80;;;;;;;10.09;57.78;95450.09;2617999;54;20179;-83
2022/12/28 04:14:14;;;;;;;2.20;2.10;;;;;;;10.27;58.20;95436.78;2617806;47;20152;-83
2022/12/28 04:16:43;;;;;;;1.53;1.53;;;;;;;10.29;55.77;95448.22;2617823;47;20763;-84
2022/12/28 04:19:12;;;;;;;2.33;2.23;;;;;;;10.43;55.08;95433.22;2618313;54;20149;-84
2022/12/28 04:21:40;;;;;;;1.10;1.07;;;;;;;10.07;54.27;95449.25;2619673;46;20145;-84
2022/12/28 04:24:12;;;;;;;3.10;2.20;;;;;;;10.26;56.10;95448.75;2626611;47;20171;-82
2022/12/28 04:26:41;;;;;;;1.87;1.77;;;;;;;10.24;55.88;95465.66;2618040;47;20686;-84
2022/12/28 04:29:10;;;;;;;2.07;1.97;;;;;;;10.01;56.05;95478.00;2619321;47;20172;-83
2022/12/28 04:31:39;;;;;;;2.03;1.93;;;;;;;9.28;56.22;95471.63;2620500;39;20546;-84
2022/12/28 04:34:07;;;;;;;3.87;2.27;;;;;;;8.60;58.94;95407.44;2620063;54;20683;-83
2022/12/28 04:36:38;;;;;;;1.00;1.00;;;;;;;8.44;58.62;95463.78;2618877;46;20181;-83
2022/12/28 04:39:07;;;;;;;1.93;1.93;;;;;;;8.76;59.39;95464.00;2617943;47;20153;-84
2022/12/28 04:41:38;;;;;;;1.93;1.93;;;;;;;8.78;59.77;95478.97;2618160;39;20553;-83
2022/12/28 04:44:07;;;;;;;1.87;1.77;;;;;;;9.14;59.66;95479.38;2617278;47;20171;-84
2022/12/28 04:46:36;;;;;;;2.70;1.47;;;;;;;8.81;57.94;95491.09;2618370;54;20160;-85
2022/12/28 04:49:05;;;;;;;1.00;1.00;;;;;;;8.64;57.33;95488.78;2618934;54;20203;-83
2022/12/28 04:51:34;;;;;;;1.33;1.33;;;;;;;7.75;58.06;95397.97;2618666;47;20191;-84
2022/12/28 04:54:03;;;;;;;1.27;1.27;;;;;;;8.12;58.35;95394.28;2619685;54;20169;-84
2022/12/28 04:56:32;;;;;;;1.37;1.37;;;;;;;8.63;56.94;95488.03;2618798;47;20152;-83
2022/12/28 04:59:03;;;;;;;1.50;1.27;;;;;;;8.81;58.44;95493.94;2619270;31;20554;-84
2022/12/28 05:01:33;;;;;;;1.53;1.53;;;;;;;9.12;57.83;95488.50;2618927;47;20152;-85
2022/12/28 05:04:01;;;;;;;2.27;1.27;;;;;;;9.01;56.94;95435.66;2618797;47;20145;-84
2022/12/28 05:06:31;;;;;;;1.90;1.80;;;;;;;9.26;58.63;95435.50;2618494;47;20176;-84
2022/12/28 05:08:59;;;;;;;2.27;2.17;;;;;;;10.01;58.33;95482.91;2618532;54;20183;-84
2022/12/28 05:11:30;;;;;;;1.97;1.47;;;;;;;10.13;56.84;95477.84;2619015;39;20677;-83
2022/12/28 05:13:59;;;;;;;2.23;2.13;;;;;;;10.36;56.56;95469.06;2617945;47;20180;-82
2022/12/28 05:16:31;;;;;;;2.17;2.00;;;;;;;10.71;54.28;95474.16;2618324;54;20152;-83
2022/12/28 05:19:00;;;;;;;2.22;2.08;;;;;;;10.50;52.70;95449.88;2617748;47;20391;-82
2022/12/28 05:21:30;;;;;;;2.13;2.03;;;;;;;10.45;52.19;95448.22;2617571;47;20153;-83
2022/12/28 05:24:00;;;;;;;1.70;1.60;;;;;;;10.62;54.45;95475.91;2618310;47;20723;-84
2022/12/28 05:26:30;;;;;;;1.80;1.53;;;;;;;10.64;53.06;95473.19;2617659;47;20152;-83
2022/12/28 05:29:00;;;;;;;1.30;1.20;;;;;;;10.61;52.48;95468.78;2618504;47;20157;-84
2022/12/28 05:31:32;;;;;;;1.73;1.63;;;;;;;10.30;52.87;95440.44;2618250;47;20157;-84
2022/12/28 05:34:00;;;;;;;2.50;2.30;;;;;;;10.23;51.32;95464.94;2617668;47;20380;-84
2022/12/28 05:36:31;;;;;;;1.57;1.57;;;;;;;10.28;52.15;95460.16;2617852;47;20195;-83
2022/12/28 05:38:59;;;;;;;1.77;1.70;;;;;;;10.59;52.44;95491.34;2618915;54;20161;-83
2022/12/28 05:41:30;;;;;;;1.57;1.47;;;;;;;9.98;51.00;95496.97;2621895;47;20160;-83
2022/12/28 05:44:00;;;;;;;1.73;1.73;;;;;;;10.10;51.88;95496.09;2623784;54;20199;-83
2022/12/28 05:46:35;;;;;;;2.30;2.10;;;;;;;9.67;51.15;95448.06;2617867;54;20296;-83
2022/12/28 05:49:05;;;;;;;1.27;1.17;;;;;;;10.03;50.43;95511.31;2617709;47;20160;-83
2022/12/28 05:51:34;;;;;;;1.30;1.30;;;;;;;10.32;54.82;95503.56;2617809;47;20149;-82
2022/12/28 05:54:05;;;;;;;1.50;1.40;;;;;;;9.81;52.07;95440.25;2617124;47;20188;-83
2022/12/28 05:56:35;;;;;;;1.03;1.03;;;;;;;9.74;50.23;95517.69;2618302;47;20190;-83
2022/12/28 05:59:05;;;;;;;1.77;1.67;;;;;;;9.44;50.46;95514.09;2618129;47;20659;-83
2022/12/28 06:01:39;;;;;;;0.93;0.93;;;;;;;9.23;52.11;95513.06;2618116;54;20161;-83
2022/12/28 06:04:09;;;;;;;1.37;1.37;;;;;;;9.63;55.14;95510.81;2618767;46;20172;-83
2022/12/28 06:06:38;;;;;;;1.92;1.73;;;;;;;9.71;53.44;95519.69;2617516;47;20488;-84
2022/12/28 06:09:07;;;;;;;1.57;1.47;;;;;;;9.68;51.08;95514.59;2618570;47;20161;-82
2022/12/28 06:11:36;;;;;;;1.07;1.07;;;;;;;9.48;52.11;95505.81;2618314;54;20194;-84
2022/12/28 06:14:05;;;;;;;0.57;0.57;;;;;;;8.67;51.78;95484.72;2618326;47;20219;-83
2022/12/28 06:16:38;;;;;;;1.37;1.37;;;;;;;8.74;53.62;95511.94;2618438;47;20153;-82
2022/12/28 06:19:08;;;;;;;2.17;1.87;;;;;;;8.91;53.54;95520.59;2618971;54;20668;-84
2022/12/28 06:21:38;;;;;;;2.20;2.00;;;;;;;8.94;54.06;95527.09;2618748;47;20675;-83
2022/12/28 06:24:09;;;;;;;1.47;1.37;;;;;;;9.00;55.03;95473.00;2618688;47;20744;-84
2022/12/28 06:26:39;;;;;;;1.47;1.47;;;;;;;9.45;55.32;95499.31;2617477;47;20157;-83
2022/12/28 06:29:08;;;;;;;3.80;1.60;;;;;;;9.74;55.70;95498.63;2619759;47;20157;-84
2022/12/28 06:31:43;;;;;;;2.30;2.23;;;;;;;10.16;53.97;95519.75;2619231;54;20165;-83
2022/12/28 06:34:13;;;;;;;2.13;1.87;;;;;;;10.41;53.09;95532.25;2619239;54;20659;-84
2022/12/28 06:36:43;;;;;;;1.27;1.20;;;;;;;10.49;52.73;95532.66;2619989;39;20555;-84
2022/12/28 06:39:15;;;;;;;1.50;1.40;;;;;;;10.54;53.39;95537.84;2619551;54;20148;-85
2022/12/28 06:41:44;;;;;;;1.53;1.10;;;;;;;10.51;51.85;95529.91;2618601;47;20153;-85
2022/12/28 06:44:15;;;;;;;6.73;1.80;;;;;;;10.04;52.18;95464.69;2619045;54;20157;-84
2022/12/28 06:46:46;;;;;;;1.33;1.27;;;;;;;9.77;51.54;95494.53;2619462;54;20203;-83
2022/12/28 06:49:15;;;;;;;1.90;1.90;;;;;;;10.23;52.75;95549.88;2619245;47;20144;-83
2022/12/28 06:51:43;;;;;;;2.03;1.80;;;;;;;9.87;53.27;95516.94;2619880;54;20172;-83
2022/12/28 06:54:12;;;;;;;1.77;1.67;;;;;;;9.59;53.90;95545.28;2619447;47;20184;-83
2022/12/28 06:59:22;;;;;;;2.70;2.50;;;;;;;8.93;54.48;95517.16;2621367;39;20523;-83
2022/12/28 07:01:53;;;;;;;2.70;2.53;;;;;;;8.74;54.22;95501.38;2623341;54;20396;-84
2022/12/28 07:04:22;;;;;;;1.53;1.53;;;;;;;9.34;54.73;95519.97;2620285;54;20148;-86
2022/12/28 07:06:51;;;;;;;1.83;1.73;;;;;;;9.75;53.33;95514.25;2619873;54;20149;-84
2022/12/28 07:09:19;;;;;;;1.37;1.37;;;;;;;10.22;53.47;95531.41;2619369;47;20160;-84
2022/12/28 07:11:52;;;;;;;1.40;1.30;;;;;;;10.28;50.72;95525.28;2618939;47;20679;-84
2022/12/28 07:14:20;;;;;;;3.27;1.83;;;;;;;10.59;50.69;95531.00;2618340;46;20177;-84
2022/12/28 07:16:50;;;;;;;2.13;1.90;;;;;;;10.68;51.14;95541.34;2618272;47;20671;-84
2022/12/28 07:19:21;;;;;;;1.83;1.77;;;;;;;10.57;51.81;95530.19;2618547;47;20153;-82
2022/12/28 07:21:51;;;;;;;1.97;1.63;;;;;;;10.30;51.53;95528.22;2618197;47;20153;-80
2022/12/28 07:24:20;;;;;;;1.33;1.27;;;;;;;10.14;50.87;95544.41;2618849;47;20169;-84
2022/12/28 07:26:50;;;;;;;3.17;2.30;;;;;;;10.09;52.49;95505.97;2620567;46;20180;-83
2022/12/28 07:29:19;;;;;;;2.27;2.17;;;;;;;10.18;50.69;95534.03;2623223;54;20161;-86
2022/12/28 07:31:48;;;;;;;1.43;1.43;;;;;;;10.17;52.88;95526.88;2628430;54;20164;-85
2022/12/28 07:34:16;;;;;;;1.50;1.50;;;;;;;10.25;50.52;95537.91;2628279;47;20168;-83
2022/12/28 07:36:48;;;;;;;1.57;1.47;;;;;;;10.55;52.35;95558.41;2621996;39;20471;-85
2022/12/28 07:39:17;;;;;;;5.57;2.30;;;;;;;10.71;54.26;95552.75;2618094;47;20706;-83
2022/12/28 07:41:46;;;;;;;1.93;1.83;;;;;;;11.04;54.41;95555.72;2617297;47;20277;-82
2022/12/28 07:44:14;;;;;;;2.30;2.13;;;;;;;10.96;49.59;95549.66;2614217;47;20833;-79
2022/12/28 07:46:43;;;;;;;2.30;2.20;;;;;;;10.67;53.05;95525.72;2615118;47;20234;-83
2022/12/28 07:49:11;;;;;;;1.93;1.83;;;;;;;10.49;50.43;95561.72;2615935;47;20790;-82
2022/12/28 07:51:41;;;;;;;2.58;2.38;;;;;;;10.13;50.61;95551.44;2616726;47;21104;-83
2022/12/28 07:54:13;;;;;;;2.60;2.30;;;;;;;9.55;52.10;95496.28;2617754;47;20283;-83
2022/12/28 07:56:41;;;;;;;2.00;1.90;;;;;;;10.13;53.26;95555.00;2616219;54;20252;-85
2022/12/28 07:59:12;;;;;;;2.30;2.07;;;;;;;10.41;52.28;95560.56;2615590;47;20280;-84
2022/12/28 08:01:41;;;;;;;1.93;1.83;;;;;;;10.18;51.60;95562.34;2615604;54;20694;-83
2022/12/28 08:04:13;;;;;;;2.30;2.20;;;;;;;10.38;51.71;95556.22;2615357;47;20187;-82
2022/12/28 08:06:43;;;;;;;3.63;2.33;;;;;;;10.60;52.23;95555.13;2615574;46;20169;-81
2022/12/28 08:09:16;;;;;;;2.10;2.00;;;;;;;10.52;51.78;95557.56;2615255;47;20251;-82
2022/12/28 08:11:47;;;;;;;2.70;2.50;;;;;;;10.85;51.88;95545.66;2615457;47;20160;-84
2022/12/28 08:14:16;;;;;;;2.93;2.17;;;;;;;10.96;50.24;95538.31;2615477;54;20164;-82
2022/12/28 08:16:46;;;;;;;2.77;2.53;;;;;;;10.71;50.58;95555.59;2616942;39;20570;-82
2022/12/28 08:19:14;;;;;;;2.00;1.90;;;;;;;10.63;51.13;95559.53;2623462;47;20149;-84
2022/12/28 08:21:46;;;;;;;3.33;2.23;;;;;;;10.47;51.57;95543.88;2616957;46;20322;-85
2022/12/28 08:24:23;;;;;;;3.53;3.00;;;;;;;10.56;52.03;95529.44;2616738;47;20478;-83
2022/12/28 08:26:52;;;;;;;2.10;1.90;;;;;;;10.83;50.43;95564.66;2615319;46;20168;-84
2022/12/28 08:29:23;;;;;;;4.50;2.93;;;;;;;10.86;51.68;95561.28;2624177;46;20226;-86
2022/12/28 08:31:52;;;;;;;1.87;1.77;;;;;;;10.90;51.30;95555.06;2621050;54;20172;-84
2022/12/28 08:34:25;;;;;;;2.10;1.87;;;;;;;10.90;50.07;95546.56;2615393;47;20149;-86
2022/12/28 08:36:54;;;;;;;4.00;2.50;;;;;;;10.71;50.63;95562.00;2615602;47;20160;-83
2022/12/28 08:39:25;;;;;;;2.20;2.00;;;;;;;10.46;50.79;95571.47;2615517;39;20552;-84
2022/12/28 08:41:54;;;;;;;1.80;1.70;;;;;;;10.29;51.36;95575.63;2615555;54;20168;-84
2022/12/28 08:44:23;;;;;;;1.33;1.30;;;;;;;10.38;51.67;95556.22;2616776;39;20714;-84
2022/12/28 08:46:52;;;;;;;1.60;1.50;;;;;;;9.78;51.94;95526.41;2616268;47;20341;-85
2022/12/28 08:49:20;;;;;;;2.63;2.40;;;;;;;9.81;50.63;95565.47;2615829;54;20946;-85
2022/12/28 08:51:49;;;;;;;2.20;2.10;;;;;;;9.85;53.32;95568.50;2617977;47;20421;-85
2022/12/28 08:54:18;;;;;;;2.73;2.23;;;;;;;10.02;52.96;95567.19;2617447;47;20234;-82
2022/12/28 08:56:49;;;;;;;1.80;1.70;;;;;;;9.97;52.14;95554.97;2615267;47;20165;-83
2022/12/28 08:59:20;;;;;;;2.50;2.30;;;;;;;10.55;53.26;95559.13;2617468;39;20748;-82
2022/12/28 09:01:49;;;;;;;2.73;2.00;;;;;;;10.75;51.87;95553.69;2609788;54;20266;-84
2022/12/28 09:04:19;;;;;;;3.07;2.93;;;;;;;10.53;53.12;95538.47;2614670;54;20153;-85
2022/12/28 09:06:48;;;;;;;2.10;2.00;;;;;;;10.68;50.64;95541.34;2615789;54;20168;-85
2022/12/28 09:09:18;;;;;;;2.27;2.10;;;;;;;10.70;51.07;95529.38;2616208;47;20203;-85
2022/12/28 09:11:50;;;;;;;4.80;2.77;;;;;;;10.98;52.75;95536.31;2616041;47;20153;-84
2022/12/28 09:14:19;;;;;;;3.10;2.90;;;;;;;10.91;50.04;95534.59;2615755;54;20171;-83
2022/12/28 09:16:48;;;;;;;3.00;2.33;;;;;;;11.02;51.18;95532.94;2615315;47;20260;-83
2022/12/28 09:19:17;;;;;;;1.60;1.50;;;;;;;11.10;50.17;95524.78;2615670;47;20157;-83
2022/12/28 09:21:47;;;;;;;1.60;1.50;;;;;;;11.11;49.75;95517.75;2615722;47;20157;-83
2022/12/28 09:24:17;;;;;;;2.17;1.97;;;;;;;11.39;50.75;95518.25;2616117;39;20472;-83
2022/12/28 09:26:46;;;;;;;2.37;2.17;;;;;;;11.21;50.41;95523.84;2615781;51;20156;-84
2022/12/28 09:29:18;;;;;;;2.17;2.07;;;;;;;11.11;49.94;95514.19;2616083;54;20145;-84
2022/12/28 09:31:48;;;;;;;3.40;2.27;;;;;;;11.02;51.01;95525.16;2615966;47;20160;-82
2022/12/28 09:34:24;;;;;;;2.30;2.20;;;;;;;10.39;54.44;95501.03;2617523;54;20216;-85
2022/12/28 09:36:52;;;;;;;2.07;1.97;;;;;;;10.52;50.05;95523.59;2621956;54;20223;-83
2022/12/28 09:39:24;;;;;;;1.93;1.83;;;;;;;10.29;52.32;95518.25;2617935;47;20168;-86
2022/12/28 09:41:57;;;;;;;1.77;1.67;;;;;;;9.84;51.59;95490.63;2617495;54;20275;-83
2022/12/28 09:44:42;;;;;;;3.03;2.83;;;;;;;9.46;53.21;95457.66;2615518;47;20236;-83
2022/12/28 09:47:21;;;;;;;1.70;1.60;;;;;;;10.17;54.24;95501.41;2616485;54;20157;-87
2022/12/28 09:50:00;;;;;;;2.30;2.13;;;;;;;10.26;51.55;95494.03;2616792;39;20338;-83
2022/12/28 09:52:32;;;;;;;1.90;1.80;;;;;;;10.30;53.59;95465.94;2618057;54;20284;-85
2022/12/28 09:55:12;;;;;;;1.83;1.73;;;;;;;10.47;54.04;95502.13;2618542;39;20571;-87
2022/12/28 09:57:45;;;;;;;3.30;2.97;;;;;;;10.62;51.97;95490.09;2615327;47;20194;-83
